N7542S SCGZ-SAVC
Flight info
| Callsign | N7542S |
|---|---|
| Flight time | 2h 48m |
| Altitude | 7500 |
| Route | PWL DCT GRA W42 MUBES W63 GAL W18 CRV |
| Aircraft | AEST/L-SDFGRY/S |
Departure
| Time | 2026-04-26 19:14 |
|---|---|
| Airport | Guardia Marina Zañartu Airport (SCGZ) |
Arrival
| Time | 2026-04-26 22:03 |
|---|---|
| Airport | General Enrique Mosconi International Airport (SAVC) |
| Time | Latitude | Longitude | Altitude | Speed | Heading |
|---|---|---|---|---|---|
| 2026-04-26 19:06 | -54.93216 | -67.61728 | 171 ft | 0 kts | 320° |
| 2026-04-26 19:08 | -54.93212 | -67.61732 | 177 ft | 0 kts | 323° |
| 2026-04-26 19:08 | -54.93212 | -67.61733 | 177 ft | 0 kts | 323° |
| 2026-04-26 19:08 | -54.93196 | -67.61706 | 169 ft | 8 kts | 98° |
| 2026-04-26 19:09 | -54.93184 | -67.61644 | 170 ft | 1 kts | 2° |
| 2026-04-26 19:09 | -54.93176 | -67.61643 | 168 ft | 0 kts | 4° |
| 2026-04-26 19:11 | -54.93163 | -67.61642 | 166 ft | 5 kts | 5° |
| 2026-04-26 19:12 | -54.93141 | -67.61638 | 163 ft | 0 kts | 7° |
| 2026-04-26 19:12 | -54.93110 | -67.61693 | 158 ft | 0 kts | 272° |
| 2026-04-26 19:12 | -54.93109 | -67.61737 | 157 ft | 7 kts | 275° |
| 2026-04-26 19:13 | -54.93109 | -67.61739 | 157 ft | 0 kts | 275° |
| 2026-04-26 19:13 | -54.93104 | -67.62142 | 157 ft | 69 kts | 270° |
| 2026-04-26 19:14 | -54.93100 | -67.63220 | 204 ft | 99 kts | 275° |
| 2026-04-26 19:14 | -54.93051 | -67.64457 | 406 ft | 106 kts | 278° |
| 2026-04-26 19:14 | -54.92954 | -67.65730 | 774 ft | 107 kts | 294° |
| 2026-04-26 19:14 | -54.92836 | -67.66109 | 837 ft | 115 kts | 307° |
| 2026-04-26 19:15 | -54.91479 | -67.67046 | 1137 ft | 137 kts | 1° |
| 2026-04-26 19:15 | -54.90542 | -67.66934 | 1510 ft | 134 kts | 5° |
| 2026-04-26 19:15 | -54.89608 | -67.66745 | 1831 ft | 135 kts | 7° |
| 2026-04-26 19:15 | -54.88713 | -67.66515 | 2229 ft | 128 kts | 9° |
| 2026-04-26 19:16 | -54.87840 | -67.66257 | 2560 ft | 127 kts | 5° |
| 2026-04-26 19:16 | -54.86949 | -67.66121 | 2868 ft | 128 kts | 2° |
| 2026-04-26 19:16 | -54.86055 | -67.66116 | 3175 ft | 133 kts | 358° |
| 2026-04-26 19:16 | -54.85128 | -67.66153 | 3491 ft | 133 kts | 356° |
| 2026-04-26 19:17 | -54.84203 | -67.66200 | 3845 ft | 133 kts | 355° |
| 2026-04-26 19:17 | -54.83253 | -67.66349 | 4059 ft | 137 kts | 350° |
| 2026-04-26 19:17 | -54.82302 | -67.66424 | 4347 ft | 139 kts | 357° |
| 2026-04-26 19:17 | -54.81296 | -67.66499 | 4472 ft | 152 kts | 348° |
| 2026-04-26 19:18 | -54.80215 | -67.66674 | 4610 ft | 160 kts | 351° |
| 2026-04-26 19:18 | -54.79097 | -67.66808 | 4814 ft | 161 kts | 352° |
| 2026-04-26 19:18 | -54.77984 | -67.66833 | 5129 ft | 159 kts | 355° |
| 2026-04-26 19:18 | -54.76870 | -67.66745 | 5397 ft | 163 kts | 358° |
| 2026-04-26 19:19 | -54.75711 | -67.66541 | 5489 ft | 169 kts | 355° |
| 2026-04-26 19:19 | -54.74498 | -67.66538 | 5476 ft | 182 kts | 351° |
| 2026-04-26 19:19 | -54.73192 | -67.66567 | 5433 ft | 192 kts | 352° |
| 2026-04-26 19:19 | -54.71838 | -67.66595 | 5431 ft | 194 kts | 352° |
| 2026-04-26 19:20 | -54.70483 | -67.66628 | 5437 ft | 197 kts | 351° |
| 2026-04-26 19:20 | -54.70020 | -67.66645 | 5452 ft | 198 kts | 351° |
| 2026-04-26 19:20 | -54.67695 | -67.66729 | 5423 ft | 200 kts | 352° |
| 2026-04-26 19:20 | -54.66303 | -67.66774 | 5447 ft | 200 kts | 352° |
| 2026-04-26 19:21 | -54.64901 | -67.66822 | 5450 ft | 202 kts | 352° |
| 2026-04-26 19:21 | -54.63490 | -67.66725 | 5446 ft | 204 kts | 357° |
| 2026-04-26 19:21 | -54.62071 | -67.66530 | 5452 ft | 205 kts | 356° |
| 2026-04-26 19:21 | -54.60648 | -67.66388 | 5446 ft | 205 kts | 355° |
| 2026-04-26 19:22 | -54.59224 | -67.66320 | 5446 ft | 205 kts | 353° |
| 2026-04-26 19:22 | -54.57802 | -67.66334 | 5442 ft | 204 kts | 351° |
| 2026-04-26 19:22 | -54.56385 | -67.66428 | 5445 ft | 203 kts | 349° |
| 2026-04-26 19:22 | -54.54979 | -67.66607 | 5444 ft | 202 kts | 348° |
| 2026-04-26 19:23 | -54.53586 | -67.66852 | 5454 ft | 201 kts | 346° |
| 2026-04-26 19:23 | -54.52200 | -67.67155 | 5448 ft | 201 kts | 344° |
| 2026-04-26 19:23 | -54.50830 | -67.67498 | 5439 ft | 196 kts | 344° |
| 2026-04-26 19:23 | -54.49482 | -67.67856 | 5461 ft | 197 kts | 343° |
| 2026-04-26 19:24 | -54.48129 | -67.68184 | 5443 ft | 195 kts | 343° |
| 2026-04-26 19:24 | -54.46785 | -67.68473 | 5457 ft | 195 kts | 344° |
| 2026-04-26 19:24 | -54.44081 | -67.68957 | 5456 ft | 196 kts | 346° |
| 2026-04-26 19:25 | -54.42715 | -67.69138 | 5454 ft | 197 kts | 347° |
| 2026-04-26 19:25 | -54.42273 | -67.69188 | 5458 ft | 197 kts | 347° |
| 2026-04-26 19:25 | -54.39977 | -67.69375 | 5448 ft | 197 kts | 348° |
| 2026-04-26 19:25 | -54.38603 | -67.69438 | 5444 ft | 197 kts | 349° |
| 2026-04-26 19:26 | -54.37231 | -67.69478 | 5467 ft | 198 kts | 349° |
| 2026-04-26 19:26 | -54.36317 | -67.69501 | 5467 ft | 198 kts | 349° |
| 2026-04-26 19:26 | -54.34933 | -67.69527 | 5458 ft | 199 kts | 349° |
| 2026-04-26 19:26 | -54.33545 | -67.69547 | 5451 ft | 200 kts | 350° |
| 2026-04-26 19:27 | -54.32154 | -67.69582 | 5461 ft | 200 kts | 349° |
| 2026-04-26 19:27 | -54.30762 | -67.69637 | 5493 ft | 199 kts | 349° |
| 2026-04-26 19:27 | -54.29394 | -67.69715 | 5574 ft | 195 kts | 348° |
| 2026-04-26 19:27 | -54.28048 | -67.69815 | 5652 ft | 193 kts | 347° |
| 2026-04-26 19:28 | -54.26708 | -67.69945 | 5723 ft | 193 kts | 347° |
| 2026-04-26 19:28 | -54.25374 | -67.70095 | 5882 ft | 190 kts | 346° |
| 2026-04-26 19:28 | -54.24061 | -67.70258 | 6028 ft | 189 kts | 346° |
| 2026-04-26 19:28 | -54.22762 | -67.70431 | 6167 ft | 187 kts | 345° |
| 2026-04-26 19:29 | -54.21484 | -67.70648 | 6374 ft | 183 kts | 346° |
| 2026-04-26 19:29 | -54.20221 | -67.70858 | 6549 ft | 182 kts | 346° |
| 2026-04-26 19:29 | -54.18961 | -67.71036 | 6702 ft | 183 kts | 347° |
| 2026-04-26 19:29 | -54.17687 | -67.71182 | 6849 ft | 184 kts | 348° |
| 2026-04-26 19:30 | -54.16426 | -67.71293 | 6983 ft | 184 kts | 348° |
| 2026-04-26 19:30 | -54.15148 | -67.71374 | 7125 ft | 185 kts | 349° |
| 2026-04-26 19:30 | -54.13846 | -67.71434 | 7267 ft | 186 kts | 349° |
| 2026-04-26 19:30 | -54.12968 | -67.71465 | 7372 ft | 187 kts | 349° |
| 2026-04-26 19:31 | -54.11242 | -67.71533 | 7571 ft | 188 kts | 349° |
| 2026-04-26 19:31 | -54.09907 | -67.71609 | 7522 ft | 198 kts | 348° |
| 2026-04-26 19:31 | -54.08521 | -67.71731 | 7445 ft | 200 kts | 348° |
| 2026-04-26 19:31 | -54.07140 | -67.71872 | 7487 ft | 198 kts | 347° |
| 2026-04-26 19:32 | -54.05761 | -67.72022 | 7485 ft | 198 kts | 348° |
| 2026-04-26 19:32 | -54.04385 | -67.72180 | 7487 ft | 198 kts | 347° |
| 2026-04-26 19:32 | -54.03009 | -67.72331 | 7491 ft | 199 kts | 347° |
| 2026-04-26 19:32 | -54.01627 | -67.72476 | 7482 ft | 199 kts | 348° |
| 2026-04-26 19:33 | -54.00248 | -67.72607 | 7488 ft | 199 kts | 348° |
| 2026-04-26 19:33 | -53.98866 | -67.72726 | 7486 ft | 199 kts | 348° |
| 2026-04-26 19:33 | -53.97489 | -67.72830 | 7498 ft | 198 kts | 348° |
| 2026-04-26 19:33 | -53.96107 | -67.72936 | 7503 ft | 199 kts | 348° |
| 2026-04-26 19:34 | -53.94721 | -67.73044 | 7503 ft | 200 kts | 348° |
| 2026-04-26 19:34 | -53.93333 | -67.73164 | 7495 ft | 199 kts | 348° |
| 2026-04-26 19:34 | -53.91954 | -67.73287 | 7511 ft | 198 kts | 348° |
| 2026-04-26 19:34 | -53.90572 | -67.73417 | 7500 ft | 199 kts | 348° |
| 2026-04-26 19:35 | -53.89195 | -67.73548 | 7513 ft | 198 kts | 348° |
| 2026-04-26 19:35 | -53.87818 | -67.73674 | 7516 ft | 198 kts | 348° |
| 2026-04-26 19:35 | -53.86438 | -67.73796 | 7511 ft | 199 kts | 348° |
| 2026-04-26 19:35 | -53.85059 | -67.73936 | 7514 ft | 199 kts | 347° |
| 2026-04-26 19:36 | -53.83682 | -67.74094 | 7516 ft | 198 kts | 347° |
| 2026-04-26 19:36 | -53.82770 | -67.74199 | 7515 ft | 198 kts | 347° |
| 2026-04-26 19:36 | -53.80956 | -67.74680 | 7517 ft | 196 kts | 338° |
| 2026-04-26 19:36 | -53.79650 | -67.75305 | 7524 ft | 194 kts | 333° |
| 2026-04-26 19:37 | -53.78461 | -67.76339 | 7505 ft | 191 kts | 321° |
| 2026-04-26 19:37 | -53.77315 | -67.77435 | 7515 ft | 188 kts | 326° |
| 2026-04-26 19:37 | -53.76160 | -67.78480 | 7527 ft | 188 kts | 318° |
| 2026-04-26 19:37 | -53.75143 | -67.79851 | 7506 ft | 186 kts | 314° |
| 2026-04-26 19:38 | -53.74154 | -67.81239 | 7510 ft | 184 kts | 314° |
| 2026-04-26 19:38 | -53.73165 | -67.82616 | 7501 ft | 184 kts | 317° |
| 2026-04-26 19:38 | -53.72001 | -67.83495 | 7527 ft | 187 kts | 336° |
| 2026-04-26 19:38 | -53.70733 | -67.84055 | 7495 ft | 192 kts | 338° |
| 2026-04-26 19:39 | -53.69439 | -67.84611 | 7516 ft | 192 kts | 338° |
| 2026-04-26 19:39 | -53.68139 | -67.85164 | 7512 ft | 193 kts | 338° |
| 2026-04-26 19:39 | -53.66836 | -67.85722 | 7510 ft | 193 kts | 338° |
| 2026-04-26 19:39 | -53.65535 | -67.86297 | 7506 ft | 194 kts | 337° |
| 2026-04-26 19:40 | -53.64239 | -67.86895 | 7496 ft | 194 kts | 336° |
| 2026-04-26 19:40 | -53.62935 | -67.87529 | 7487 ft | 195 kts | 336° |
| 2026-04-26 19:40 | -53.61648 | -67.88199 | 7502 ft | 193 kts | 334° |
| 2026-04-26 19:40 | -53.60374 | -67.88910 | 7492 ft | 193 kts | 334° |
| 2026-04-26 19:41 | -53.59108 | -67.89668 | 7498 ft | 192 kts | 332° |
| 2026-04-26 19:41 | -53.57860 | -67.90471 | 7494 ft | 192 kts | 331° |
| 2026-04-26 19:41 | -53.56627 | -67.91324 | 7499 ft | 191 kts | 329° |
| 2026-04-26 19:41 | -53.55825 | -67.91912 | 7503 ft | 190 kts | 329° |
| 2026-04-26 19:42 | -53.54222 | -67.93177 | 7502 ft | 189 kts | 327° |
| 2026-04-26 19:42 | -53.53044 | -67.94179 | 7490 ft | 190 kts | 326° |
| 2026-04-26 19:42 | -53.51878 | -67.95217 | 7486 ft | 189 kts | 324° |
| 2026-04-26 19:42 | -53.50730 | -67.96281 | 7498 ft | 188 kts | 324° |
| 2026-04-26 19:43 | -53.49594 | -67.97376 | 7492 ft | 188 kts | 323° |
| 2026-04-26 19:43 | -53.48470 | -67.98496 | 7502 ft | 187 kts | 322° |
| 2026-04-26 19:43 | -53.47355 | -67.99636 | 7482 ft | 188 kts | 322° |
| 2026-04-26 19:43 | -53.46246 | -68.00806 | 7491 ft | 188 kts | 321° |
| 2026-04-26 19:44 | -53.45140 | -68.01985 | 7497 ft | 189 kts | 322° |
| 2026-04-26 19:44 | -53.44027 | -68.03161 | 7492 ft | 189 kts | 322° |
| 2026-04-26 19:44 | -53.42911 | -68.04319 | 7500 ft | 189 kts | 322° |
| 2026-04-26 19:44 | -53.41782 | -68.05467 | 7485 ft | 190 kts | 323° |
| 2026-04-26 19:45 | -53.40648 | -68.06589 | 7494 ft | 189 kts | 324° |
| 2026-04-26 19:45 | -53.39502 | -68.07674 | 7502 ft | 189 kts | 325° |
| 2026-04-26 19:45 | -53.38336 | -68.08723 | 7490 ft | 191 kts | 326° |
| 2026-04-26 19:45 | -53.37148 | -68.09729 | 7499 ft | 192 kts | 327° |
| 2026-04-26 19:46 | -53.35938 | -68.10686 | 7499 ft | 193 kts | 329° |
| 2026-04-26 19:46 | -53.34710 | -68.11599 | 7495 ft | 193 kts | 330° |
| 2026-04-26 19:46 | -53.33465 | -68.12469 | 7501 ft | 194 kts | 331° |
| 2026-04-26 19:46 | -53.32206 | -68.13288 | 7504 ft | 194 kts | 333° |
| 2026-04-26 19:47 | -53.30934 | -68.14062 | 7503 ft | 195 kts | 333° |
| 2026-04-26 19:47 | -53.30085 | -68.14555 | 7504 ft | 195 kts | 334° |
| 2026-04-26 19:47 | -53.28358 | -68.15509 | 7502 ft | 196 kts | 335° |
| 2026-04-26 19:47 | -53.27058 | -68.16193 | 7502 ft | 196 kts | 336° |
| 2026-04-26 19:48 | -53.25757 | -68.16858 | 7498 ft | 196 kts | 336° |
| 2026-04-26 19:48 | -53.24454 | -68.17518 | 7492 ft | 196 kts | 336° |
| 2026-04-26 19:48 | -53.23160 | -68.18188 | 7505 ft | 194 kts | 335° |
| 2026-04-26 19:48 | -53.21872 | -68.18874 | 7504 ft | 194 kts | 335° |
| 2026-04-26 19:49 | -53.20590 | -68.19585 | 7504 ft | 194 kts | 334° |
| 2026-04-26 19:49 | -53.19329 | -68.20316 | 7501 ft | 194 kts | 334° |
| 2026-04-26 19:49 | -53.18060 | -68.21093 | 7503 ft | 194 kts | 333° |
| 2026-04-26 19:49 | -53.16802 | -68.21906 | 7501 ft | 194 kts | 332° |
| 2026-04-26 19:50 | -53.15554 | -68.22760 | 7502 ft | 194 kts | 330° |
| 2026-04-26 19:50 | -53.14318 | -68.23655 | 7507 ft | 193 kts | 330° |
| 2026-04-26 19:50 | -53.13095 | -68.24584 | 7508 ft | 193 kts | 328° |
| 2026-04-26 19:50 | -53.11883 | -68.25549 | 7507 ft | 193 kts | 327° |
| 2026-04-26 19:51 | -53.10685 | -68.26540 | 7507 ft | 192 kts | 327° |
| 2026-04-26 19:51 | -53.09496 | -68.27558 | 7507 ft | 192 kts | 326° |
| 2026-04-26 19:51 | -53.08318 | -68.28600 | 7508 ft | 192 kts | 326° |
| 2026-04-26 19:51 | -53.07146 | -68.29658 | 7507 ft | 192 kts | 325° |
| 2026-04-26 19:52 | -53.05979 | -68.30724 | 7513 ft | 192 kts | 325° |
| 2026-04-26 19:52 | -53.04811 | -68.31792 | 7516 ft | 191 kts | 325° |
| 2026-04-26 19:52 | -53.03641 | -68.32850 | 7515 ft | 192 kts | 326° |
| 2026-04-26 19:52 | -53.02467 | -68.33896 | 7512 ft | 192 kts | 326° |
| 2026-04-26 19:53 | -53.01286 | -68.34921 | 7495 ft | 193 kts | 327° |
| 2026-04-26 19:53 | -53.00080 | -68.35922 | 7511 ft | 194 kts | 327° |
| 2026-04-26 19:53 | -52.98861 | -68.36892 | 7514 ft | 195 kts | 328° |
| 2026-04-26 19:53 | -52.97631 | -68.37831 | 7516 ft | 195 kts | 329° |
| 2026-04-26 19:54 | -52.96387 | -68.38743 | 7516 ft | 196 kts | 330° |
| 2026-04-26 19:54 | -52.95133 | -68.39621 | 7518 ft | 196 kts | 330° |
| 2026-04-26 19:54 | -52.93873 | -68.40472 | 7520 ft | 196 kts | 331° |
| 2026-04-26 19:54 | -52.92604 | -68.41300 | 7519 ft | 196 kts | 332° |
| 2026-04-26 19:55 | -52.91327 | -68.42105 | 7517 ft | 197 kts | 332° |
| 2026-04-26 19:55 | -52.90044 | -68.42900 | 7519 ft | 197 kts | 333° |
| 2026-04-26 19:55 | -52.88755 | -68.43689 | 7519 ft | 198 kts | 333° |
| 2026-04-26 19:55 | -52.87464 | -68.44477 | 7521 ft | 198 kts | 333° |
| 2026-04-26 19:56 | -52.86176 | -68.45263 | 7526 ft | 198 kts | 333° |
| 2026-04-26 19:56 | -52.84889 | -68.46054 | 7522 ft | 197 kts | 333° |
| 2026-04-26 19:56 | -52.83622 | -68.46843 | 7521 ft | 197 kts | 332° |
| 2026-04-26 19:56 | -52.82343 | -68.47658 | 7523 ft | 197 kts | 332° |
| 2026-04-26 19:57 | -52.81069 | -68.48501 | 7521 ft | 197 kts | 331° |
| 2026-04-26 19:57 | -52.79804 | -68.49364 | 7525 ft | 197 kts | 330° |
| 2026-04-26 19:57 | -52.78546 | -68.50249 | 7525 ft | 196 kts | 330° |
| 2026-04-26 19:57 | -52.77300 | -68.51155 | 7529 ft | 195 kts | 329° |
| 2026-04-26 19:58 | -52.76065 | -68.52085 | 7535 ft | 195 kts | 329° |
| 2026-04-26 19:58 | -52.74839 | -68.53035 | 7529 ft | 195 kts | 328° |
| 2026-04-26 19:58 | -52.73616 | -68.54006 | 7530 ft | 195 kts | 328° |
| 2026-04-26 19:58 | -52.72394 | -68.54990 | 7529 ft | 196 kts | 327° |
| 2026-04-26 19:59 | -52.71173 | -68.55980 | 7530 ft | 195 kts | 327° |
| 2026-04-26 19:59 | -52.69954 | -68.56974 | 7525 ft | 195 kts | 327° |
| 2026-04-26 19:59 | -52.68736 | -68.57967 | 7534 ft | 195 kts | 328° |
| 2026-04-26 19:59 | -52.67517 | -68.58944 | 7533 ft | 195 kts | 328° |
| 2026-04-26 20:00 | -52.66292 | -68.59905 | 7535 ft | 195 kts | 328° |
| 2026-04-26 20:00 | -52.65061 | -68.60842 | 7537 ft | 195 kts | 329° |
| 2026-04-26 20:00 | -52.63821 | -68.61759 | 7538 ft | 196 kts | 329° |
| 2026-04-26 20:00 | -52.62574 | -68.62659 | 7535 ft | 196 kts | 330° |
| 2026-04-26 20:01 | -52.61321 | -68.63542 | 7538 ft | 196 kts | 330° |
| 2026-04-26 20:01 | -52.60061 | -68.64402 | 7544 ft | 196 kts | 331° |
| 2026-04-26 20:01 | -52.58796 | -68.65246 | 7538 ft | 196 kts | 332° |
| 2026-04-26 20:01 | -52.57528 | -68.66077 | 7538 ft | 196 kts | 332° |
| 2026-04-26 20:02 | -52.56256 | -68.66901 | 7539 ft | 196 kts | 332° |
| 2026-04-26 20:02 | -52.54987 | -68.67721 | 7528 ft | 195 kts | 332° |
| 2026-04-26 20:02 | -52.53724 | -68.68539 | 7536 ft | 195 kts | 332° |
| 2026-04-26 20:02 | -52.52890 | -68.69084 | 7539 ft | 195 kts | 332° |
| 2026-04-26 20:03 | -52.51209 | -68.70199 | 7541 ft | 195 kts | 331° |
| 2026-04-26 20:03 | -52.49956 | -68.71047 | 7543 ft | 195 kts | 331° |
| 2026-04-26 20:03 | -52.48706 | -68.71907 | 7543 ft | 195 kts | 330° |
| 2026-04-26 20:03 | -52.47460 | -68.72781 | 7543 ft | 195 kts | 330° |
| 2026-04-26 20:04 | -52.46220 | -68.73670 | 7542 ft | 194 kts | 330° |
| 2026-04-26 20:04 | -52.44985 | -68.74570 | 7542 ft | 194 kts | 329° |
| 2026-04-26 20:04 | -52.43772 | -68.75467 | 7542 ft | 194 kts | 329° |
| 2026-04-26 20:04 | -52.42544 | -68.76384 | 7543 ft | 194 kts | 329° |
| 2026-04-26 20:05 | -52.41317 | -68.77305 | 7549 ft | 194 kts | 329° |
| 2026-04-26 20:05 | -52.40089 | -68.78223 | 7548 ft | 194 kts | 329° |
| 2026-04-26 20:05 | -52.38843 | -68.79154 | 7549 ft | 194 kts | 329° |
| 2026-04-26 20:05 | -52.37629 | -68.80054 | 7550 ft | 194 kts | 329° |
| 2026-04-26 20:06 | -52.36398 | -68.80958 | 7548 ft | 194 kts | 329° |
| 2026-04-26 20:06 | -52.35165 | -68.81852 | 7545 ft | 194 kts | 329° |
| 2026-04-26 20:06 | -52.33929 | -68.82736 | 7547 ft | 194 kts | 330° |
| 2026-04-26 20:06 | -52.32690 | -68.83610 | 7535 ft | 195 kts | 330° |
| 2026-04-26 20:07 | -52.31446 | -68.84490 | 7548 ft | 195 kts | 330° |
| 2026-04-26 20:07 | -52.30198 | -68.85363 | 7554 ft | 195 kts | 331° |
| 2026-04-26 20:07 | -52.28948 | -68.86226 | 7554 ft | 196 kts | 331° |
| 2026-04-26 20:07 | -52.27691 | -68.87083 | 7552 ft | 196 kts | 331° |
| 2026-04-26 20:08 | -52.26430 | -68.87933 | 7550 ft | 196 kts | 331° |
| 2026-04-26 20:08 | -52.25161 | -68.88786 | 7538 ft | 197 kts | 331° |
| 2026-04-26 20:08 | -52.23896 | -68.89634 | 7548 ft | 197 kts | 331° |
| 2026-04-26 20:08 | -52.22631 | -68.90483 | 7556 ft | 196 kts | 331° |
| 2026-04-26 20:09 | -52.21370 | -68.91335 | 7553 ft | 196 kts | 331° |
| 2026-04-26 20:09 | -52.20111 | -68.92198 | 7554 ft | 196 kts | 330° |
| 2026-04-26 20:09 | -52.18857 | -68.93070 | 7554 ft | 196 kts | 330° |
| 2026-04-26 20:09 | -52.17607 | -68.93953 | 7553 ft | 196 kts | 330° |
| 2026-04-26 20:10 | -52.16361 | -68.94844 | 7555 ft | 196 kts | 330° |
| 2026-04-26 20:10 | -52.15115 | -68.95745 | 7556 ft | 196 kts | 330° |
| 2026-04-26 20:10 | -52.13871 | -68.96651 | 7554 ft | 196 kts | 329° |
| 2026-04-26 20:10 | -52.12629 | -68.97552 | 7559 ft | 196 kts | 330° |
| 2026-04-26 20:11 | -52.11385 | -68.98448 | 7554 ft | 196 kts | 330° |
| 2026-04-26 20:11 | -52.10136 | -68.99339 | 7546 ft | 196 kts | 330° |
| 2026-04-26 20:11 | -52.08888 | -69.00223 | 7555 ft | 196 kts | 330° |
| 2026-04-26 20:12 | -52.06381 | -69.01966 | 7555 ft | 196 kts | 331° |
| 2026-04-26 20:12 | -52.05122 | -69.02828 | 7559 ft | 196 kts | 331° |
| 2026-04-26 20:12 | -52.03862 | -69.03681 | 7559 ft | 196 kts | 331° |
| 2026-04-26 20:12 | -52.02602 | -69.04533 | 7560 ft | 196 kts | 331° |
| 2026-04-26 20:13 | -52.01341 | -69.05388 | 7556 ft | 197 kts | 331° |
| 2026-04-26 20:13 | -52.00080 | -69.06249 | 7556 ft | 196 kts | 332° |
| 2026-04-26 20:13 | -51.98822 | -69.07113 | 7555 ft | 196 kts | 331° |
| 2026-04-26 20:13 | -51.97567 | -69.07984 | 7556 ft | 196 kts | 331° |
| 2026-04-26 20:14 | -51.96313 | -69.08858 | 7562 ft | 196 kts | 331° |
| 2026-04-26 20:14 | -51.95059 | -69.09734 | 7557 ft | 196 kts | 330° |
| 2026-04-26 20:14 | -51.93825 | -69.10598 | 7551 ft | 196 kts | 331° |
| 2026-04-26 20:14 | -51.92976 | -69.11196 | 7553 ft | 196 kts | 331° |
| 2026-04-26 20:15 | -51.91315 | -69.12357 | 7541 ft | 197 kts | 331° |
| 2026-04-26 20:15 | -51.90059 | -69.13233 | 7545 ft | 196 kts | 331° |
| 2026-04-26 20:15 | -51.88805 | -69.14097 | 7545 ft | 196 kts | 331° |
| 2026-04-26 20:15 | -51.87547 | -69.14964 | 7538 ft | 197 kts | 331° |
| 2026-04-26 20:16 | -51.86293 | -69.15839 | 7529 ft | 196 kts | 331° |
| 2026-04-26 20:16 | -51.85447 | -69.16427 | 7548 ft | 195 kts | 331° |
| 2026-04-26 20:16 | -51.84191 | -69.17258 | 7546 ft | 195 kts | 338° |
| 2026-04-26 20:16 | -51.82857 | -69.17495 | 7559 ft | 199 kts | 355° |
| 2026-04-26 20:17 | -51.81473 | -69.17135 | 7542 ft | 205 kts | 10° |
| 2026-04-26 20:17 | -51.80126 | -69.16322 | 7543 ft | 209 kts | 14° |
| 2026-04-26 20:17 | -51.78755 | -69.15505 | 7539 ft | 211 kts | 13° |
| 2026-04-26 20:17 | -51.77354 | -69.14775 | 7550 ft | 212 kts | 11° |
| 2026-04-26 20:18 | -51.75940 | -69.14113 | 7554 ft | 212 kts | 9° |
| 2026-04-26 20:18 | -51.74514 | -69.13517 | 7545 ft | 212 kts | 8° |
| 2026-04-26 20:18 | -51.73077 | -69.12976 | 7539 ft | 212 kts | 7° |
| 2026-04-26 20:18 | -51.71638 | -69.12483 | 7545 ft | 211 kts | 6° |
| 2026-04-26 20:19 | -51.70196 | -69.12032 | 7543 ft | 211 kts | 5° |
| 2026-04-26 20:19 | -51.68758 | -69.11614 | 7541 ft | 210 kts | 4° |
| 2026-04-26 20:19 | -51.67312 | -69.11216 | 7544 ft | 210 kts | 4° |
| 2026-04-26 20:19 | -51.65865 | -69.10833 | 7540 ft | 211 kts | 4° |
| 2026-04-26 20:20 | -51.64421 | -69.10457 | 7544 ft | 210 kts | 4° |
| 2026-04-26 20:20 | -51.62979 | -69.10074 | 7545 ft | 210 kts | 4° |
| 2026-04-26 20:20 | -51.61535 | -69.09674 | 7541 ft | 211 kts | 5° |
| 2026-04-26 20:20 | -51.60096 | -69.09249 | 7528 ft | 211 kts | 5° |
| 2026-04-26 20:21 | -51.58655 | -69.08784 | 7533 ft | 211 kts | 6° |
| 2026-04-26 20:21 | -51.57216 | -69.08272 | 7535 ft | 211 kts | 8° |
| 2026-04-26 20:21 | -51.55791 | -69.07705 | 7547 ft | 211 kts | 9° |
| 2026-04-26 20:21 | -51.54373 | -69.07076 | 7551 ft | 212 kts | 11° |
| 2026-04-26 20:22 | -51.52957 | -69.06394 | 7542 ft | 212 kts | 12° |
| 2026-04-26 20:22 | -51.51557 | -69.05651 | 7549 ft | 212 kts | 14° |
| 2026-04-26 20:22 | -51.50162 | -69.04840 | 7544 ft | 214 kts | 15° |
| 2026-04-26 20:22 | -51.48777 | -69.03969 | 7546 ft | 215 kts | 16° |
| 2026-04-26 20:23 | -51.47399 | -69.03045 | 7546 ft | 214 kts | 18° |
| 2026-04-26 20:23 | -51.46039 | -69.02068 | 7546 ft | 214 kts | 19° |
| 2026-04-26 20:23 | -51.44688 | -69.01045 | 7552 ft | 215 kts | 20° |
| 2026-04-26 20:23 | -51.43346 | -68.99981 | 7545 ft | 215 kts | 22° |
| 2026-04-26 20:24 | -51.42012 | -68.98877 | 7547 ft | 216 kts | 22° |
| 2026-04-26 20:24 | -51.40680 | -68.97754 | 7556 ft | 216 kts | 22° |
| 2026-04-26 20:24 | -51.39351 | -68.96612 | 7551 ft | 217 kts | 23° |
| 2026-04-26 20:24 | -51.38012 | -68.95473 | 7549 ft | 220 kts | 22° |
| 2026-04-26 20:25 | -51.36675 | -68.94340 | 7552 ft | 220 kts | 22° |
| 2026-04-26 20:25 | -51.35756 | -68.93572 | 7550 ft | 221 kts | 22° |
| 2026-04-26 20:25 | -51.33931 | -68.92051 | 7554 ft | 221 kts | 21° |
| 2026-04-26 20:25 | -51.32573 | -68.90998 | 7536 ft | 220 kts | 20° |
| 2026-04-26 20:26 | -51.31192 | -68.89985 | 7554 ft | 218 kts | 19° |
| 2026-04-26 20:26 | -51.29800 | -68.89025 | 7552 ft | 218 kts | 18° |
| 2026-04-26 20:26 | -51.28397 | -68.88100 | 7555 ft | 218 kts | 16° |
| 2026-04-26 20:26 | -51.26986 | -68.87225 | 7553 ft | 218 kts | 15° |
| 2026-04-26 20:27 | -51.25566 | -68.86374 | 7548 ft | 218 kts | 14° |
| 2026-04-26 20:27 | -51.24135 | -68.85589 | 7547 ft | 216 kts | 12° |
| 2026-04-26 20:27 | -51.22696 | -68.84872 | 7547 ft | 217 kts | 11° |
| 2026-04-26 20:27 | -51.21255 | -68.84206 | 7546 ft | 216 kts | 10° |
| 2026-04-26 20:28 | -51.19802 | -68.83591 | 7548 ft | 216 kts | 10° |
| 2026-04-26 20:28 | -51.18349 | -68.82993 | 7543 ft | 216 kts | 9° |
| 2026-04-26 20:28 | -51.16890 | -68.82432 | 7540 ft | 215 kts | 8° |
| 2026-04-26 20:28 | -51.15435 | -68.81863 | 7539 ft | 216 kts | 8° |
| 2026-04-26 20:29 | -51.13973 | -68.81291 | 7522 ft | 216 kts | 8° |
| 2026-04-26 20:29 | -51.12515 | -68.80751 | 7529 ft | 215 kts | 8° |
| 2026-04-26 20:29 | -51.11061 | -68.80188 | 7522 ft | 215 kts | 8° |
| 2026-04-26 20:29 | -51.09606 | -68.79628 | 7513 ft | 215 kts | 9° |
| 2026-04-26 20:30 | -51.08157 | -68.79060 | 7517 ft | 215 kts | 9° |
| 2026-04-26 20:30 | -51.06717 | -68.78420 | 7526 ft | 214 kts | 11° |
| 2026-04-26 20:30 | -51.05288 | -68.77755 | 7540 ft | 214 kts | 11° |
| 2026-04-26 20:30 | -51.03870 | -68.77042 | 7551 ft | 214 kts | 13° |
| 2026-04-26 20:31 | -51.02478 | -68.76309 | 7551 ft | 214 kts | 14° |
| 2026-04-26 20:31 | -51.01068 | -68.75525 | 7546 ft | 215 kts | 15° |
| 2026-04-26 20:31 | -50.99649 | -68.74692 | 7554 ft | 219 kts | 16° |
| 2026-04-26 20:31 | -50.98214 | -68.73798 | 7551 ft | 218 kts | 17° |
| 2026-04-26 20:32 | -50.96820 | -68.72873 | 7545 ft | 220 kts | 18° |
| 2026-04-26 20:32 | -50.95417 | -68.71908 | 7552 ft | 221 kts | 18° |
| 2026-04-26 20:32 | -50.94019 | -68.70873 | 7547 ft | 222 kts | 19° |
| 2026-04-26 20:32 | -50.92623 | -68.69854 | 7544 ft | 220 kts | 20° |
| 2026-04-26 20:33 | -50.91230 | -68.68828 | 7539 ft | 220 kts | 20° |
| 2026-04-26 20:33 | -50.89834 | -68.67839 | 7536 ft | 220 kts | 20° |
| 2026-04-26 20:33 | -50.88435 | -68.66837 | 7537 ft | 222 kts | 19° |
| 2026-04-26 20:33 | -50.87031 | -68.65840 | 7538 ft | 222 kts | 19° |
| 2026-04-26 20:34 | -50.85624 | -68.64845 | 7534 ft | 222 kts | 18° |
| 2026-04-26 20:34 | -50.84205 | -68.63873 | 7533 ft | 221 kts | 17° |
| 2026-04-26 20:34 | -50.82784 | -68.62963 | 7555 ft | 220 kts | 17° |
| 2026-04-26 20:34 | -50.81359 | -68.62116 | 7561 ft | 218 kts | 15° |
| 2026-04-26 20:35 | -50.79924 | -68.61332 | 7557 ft | 219 kts | 14° |
| 2026-04-26 20:35 | -50.78484 | -68.60547 | 7561 ft | 218 kts | 13° |
| 2026-04-26 20:35 | -50.77040 | -68.59810 | 7551 ft | 218 kts | 13° |
| 2026-04-26 20:35 | -50.75596 | -68.59080 | 7558 ft | 217 kts | 12° |
| 2026-04-26 20:36 | -50.74145 | -68.58401 | 7560 ft | 217 kts | 11° |
| 2026-04-26 20:36 | -50.72693 | -68.57755 | 7561 ft | 218 kts | 11° |
| 2026-04-26 20:36 | -50.71232 | -68.57123 | 7536 ft | 218 kts | 10° |
| 2026-04-26 20:36 | -50.69770 | -68.56513 | 7527 ft | 217 kts | 10° |
| 2026-04-26 20:37 | -50.68314 | -68.55883 | 7521 ft | 217 kts | 10° |
| 2026-04-26 20:37 | -50.66864 | -68.55240 | 7525 ft | 216 kts | 11° |
| 2026-04-26 20:37 | -50.65415 | -68.54574 | 7522 ft | 218 kts | 11° |
| 2026-04-26 20:37 | -50.63963 | -68.53875 | 7535 ft | 219 kts | 12° |
| 2026-04-26 20:38 | -50.62512 | -68.53175 | 7563 ft | 219 kts | 13° |
| 2026-04-26 20:38 | -50.61065 | -68.52433 | 7563 ft | 218 kts | 13° |
| 2026-04-26 20:38 | -50.59623 | -68.51680 | 7563 ft | 219 kts | 14° |
| 2026-04-26 20:38 | -50.58184 | -68.50876 | 7567 ft | 220 kts | 15° |
| 2026-04-26 20:39 | -50.56747 | -68.50038 | 7566 ft | 221 kts | 16° |
| 2026-04-26 20:39 | -50.55798 | -68.49460 | 7568 ft | 221 kts | 17° |
| 2026-04-26 20:39 | -50.53885 | -68.48238 | 7568 ft | 221 kts | 17° |
| 2026-04-26 20:39 | -50.52479 | -68.47336 | 7566 ft | 222 kts | 18° |
| 2026-04-26 20:40 | -50.51042 | -68.46401 | 7569 ft | 220 kts | 18° |
| 2026-04-26 20:40 | -50.49646 | -68.45510 | 7556 ft | 220 kts | 18° |
| 2026-04-26 20:40 | -50.48235 | -68.44592 | 7567 ft | 219 kts | 18° |
| 2026-04-26 20:40 | -50.46822 | -68.43686 | 7568 ft | 220 kts | 18° |
| 2026-04-26 20:41 | -50.45403 | -68.42781 | 7566 ft | 220 kts | 17° |
| 2026-04-26 20:41 | -50.43979 | -68.41904 | 7569 ft | 220 kts | 17° |
| 2026-04-26 20:41 | -50.42550 | -68.41051 | 7576 ft | 219 kts | 16° |
| 2026-04-26 20:41 | -50.41117 | -68.40232 | 7576 ft | 219 kts | 15° |
| 2026-04-26 20:42 | -50.39677 | -68.39441 | 7572 ft | 220 kts | 14° |
| 2026-04-26 20:42 | -50.38233 | -68.38669 | 7575 ft | 219 kts | 14° |
| 2026-04-26 20:42 | -50.36784 | -68.37917 | 7573 ft | 219 kts | 13° |
| 2026-04-26 20:42 | -50.35336 | -68.37173 | 7575 ft | 219 kts | 13° |
| 2026-04-26 20:43 | -50.33883 | -68.36460 | 7573 ft | 218 kts | 13° |
| 2026-04-26 20:43 | -50.32433 | -68.35757 | 7573 ft | 218 kts | 12° |
| 2026-04-26 20:43 | -50.30983 | -68.35071 | 7574 ft | 218 kts | 12° |
| 2026-04-26 20:43 | -50.29532 | -68.34379 | 7575 ft | 218 kts | 12° |
| 2026-04-26 20:44 | -50.28084 | -68.33673 | 7583 ft | 218 kts | 13° |
| 2026-04-26 20:44 | -50.26627 | -68.32941 | 7582 ft | 221 kts | 13° |
| 2026-04-26 20:44 | -50.25168 | -68.32179 | 7582 ft | 222 kts | 13° |
| 2026-04-26 20:44 | -50.23709 | -68.31410 | 7579 ft | 221 kts | 14° |
| 2026-04-26 20:45 | -50.22257 | -68.30623 | 7572 ft | 220 kts | 14° |
| 2026-04-26 20:45 | -50.20811 | -68.29837 | 7580 ft | 220 kts | 15° |
| 2026-04-26 20:45 | -50.19370 | -68.29028 | 7579 ft | 220 kts | 16° |
| 2026-04-26 20:45 | -50.17932 | -68.28200 | 7576 ft | 220 kts | 16° |
| 2026-04-26 20:46 | -50.16499 | -68.27360 | 7578 ft | 220 kts | 17° |
| 2026-04-26 20:46 | -50.15069 | -68.26511 | 7577 ft | 220 kts | 17° |
| 2026-04-26 20:46 | -50.13639 | -68.25662 | 7586 ft | 220 kts | 17° |
| 2026-04-26 20:46 | -50.12210 | -68.24812 | 7588 ft | 220 kts | 17° |
| 2026-04-26 20:47 | -50.10781 | -68.23971 | 7584 ft | 220 kts | 16° |
| 2026-04-26 20:47 | -50.09832 | -68.23418 | 7586 ft | 220 kts | 16° |
| 2026-04-26 20:47 | -50.07913 | -68.22318 | 7586 ft | 220 kts | 15° |
| 2026-04-26 20:47 | -50.06472 | -68.21511 | 7586 ft | 220 kts | 15° |
| 2026-04-26 20:48 | -50.05024 | -68.20723 | 7587 ft | 220 kts | 15° |
| 2026-04-26 20:48 | -50.03572 | -68.19955 | 7585 ft | 220 kts | 14° |
| 2026-04-26 20:48 | -50.02141 | -68.19214 | 7587 ft | 219 kts | 14° |
| 2026-04-26 20:48 | -50.00692 | -68.18472 | 7589 ft | 220 kts | 14° |
| 2026-04-26 20:49 | -49.99238 | -68.17734 | 7589 ft | 220 kts | 14° |
| 2026-04-26 20:49 | -49.97787 | -68.16998 | 7594 ft | 219 kts | 14° |
| 2026-04-26 20:49 | -49.96335 | -68.16257 | 7597 ft | 220 kts | 14° |
| 2026-04-26 20:49 | -49.94884 | -68.15505 | 7581 ft | 220 kts | 14° |
| 2026-04-26 20:50 | -49.93437 | -68.14745 | 7592 ft | 219 kts | 14° |
| 2026-04-26 20:50 | -49.91995 | -68.13973 | 7592 ft | 220 kts | 15° |
| 2026-04-26 20:50 | -49.90548 | -68.13193 | 7592 ft | 220 kts | 15° |
| 2026-04-26 20:50 | -49.89101 | -68.12399 | 7592 ft | 221 kts | 15° |
| 2026-04-26 20:51 | -49.87653 | -68.11594 | 7590 ft | 221 kts | 15° |
| 2026-04-26 20:51 | -49.86208 | -68.10787 | 7590 ft | 221 kts | 16° |
| 2026-04-26 20:51 | -49.84762 | -68.09979 | 7601 ft | 221 kts | 16° |
| 2026-04-26 20:51 | -49.83316 | -68.09170 | 7598 ft | 221 kts | 16° |
| 2026-04-26 20:52 | -49.81869 | -68.08369 | 7598 ft | 221 kts | 15° |
| 2026-04-26 20:52 | -49.80422 | -68.07575 | 7598 ft | 221 kts | 15° |
| 2026-04-26 20:52 | -49.78975 | -68.06780 | 7601 ft | 221 kts | 15° |
| 2026-04-26 20:52 | -49.77527 | -68.05993 | 7601 ft | 221 kts | 15° |
| 2026-04-26 20:53 | -49.76076 | -68.05215 | 7594 ft | 221 kts | 14° |
| 2026-04-26 20:53 | -49.74623 | -68.04448 | 7598 ft | 221 kts | 14° |
| 2026-04-26 20:53 | -49.73166 | -68.03682 | 7594 ft | 221 kts | 14° |
| 2026-04-26 20:53 | -49.71708 | -68.02925 | 7596 ft | 221 kts | 14° |
| 2026-04-26 20:54 | -49.70251 | -68.02165 | 7599 ft | 221 kts | 14° |
| 2026-04-26 20:54 | -49.68792 | -68.01399 | 7579 ft | 221 kts | 14° |
| 2026-04-26 20:54 | -49.67345 | -68.00630 | 7606 ft | 219 kts | 15° |
| 2026-04-26 20:54 | -49.65905 | -67.99860 | 7606 ft | 220 kts | 15° |
| 2026-04-26 20:55 | -49.64455 | -67.99083 | 7599 ft | 220 kts | 15° |
| 2026-04-26 20:55 | -49.63026 | -67.98311 | 7596 ft | 221 kts | 15° |
| 2026-04-26 20:55 | -49.61578 | -67.97528 | 7606 ft | 220 kts | 15° |
| 2026-04-26 20:55 | -49.60132 | -67.96747 | 7605 ft | 220 kts | 15° |
| 2026-04-26 20:56 | -49.58686 | -67.95965 | 7602 ft | 220 kts | 15° |
| 2026-04-26 20:56 | -49.57241 | -67.95187 | 7597 ft | 221 kts | 15° |
| 2026-04-26 20:56 | -49.55786 | -67.94410 | 7566 ft | 223 kts | 15° |
| 2026-04-26 20:56 | -49.54317 | -67.93620 | 7580 ft | 223 kts | 15° |
| 2026-04-26 20:57 | -49.52856 | -67.92842 | 7592 ft | 221 kts | 14° |
| 2026-04-26 20:57 | -49.51396 | -67.92080 | 7600 ft | 222 kts | 14° |
| 2026-04-26 20:57 | -49.49932 | -67.91309 | 7604 ft | 222 kts | 14° |
| 2026-04-26 20:57 | -49.48468 | -67.90535 | 7596 ft | 224 kts | 14° |
| 2026-04-26 20:58 | -49.46999 | -67.89746 | 7582 ft | 224 kts | 14° |
| 2026-04-26 20:58 | -49.45527 | -67.88974 | 7599 ft | 222 kts | 14° |
| 2026-04-26 20:58 | -49.44068 | -67.88206 | 7593 ft | 222 kts | 14° |
| 2026-04-26 20:58 | -49.42600 | -67.87434 | 7583 ft | 223 kts | 14° |
| 2026-04-26 20:59 | -49.41144 | -67.86667 | 7614 ft | 221 kts | 15° |
| 2026-04-26 20:59 | -49.39690 | -67.85898 | 7616 ft | 222 kts | 15° |
| 2026-04-26 20:59 | -49.38231 | -67.85112 | 7612 ft | 222 kts | 15° |
| 2026-04-26 20:59 | -49.36770 | -67.84323 | 7621 ft | 222 kts | 14° |
| 2026-04-26 21:00 | -49.35321 | -67.83516 | 7613 ft | 222 kts | 19° |
| 2026-04-26 21:00 | -49.33904 | -67.82571 | 7622 ft | 221 kts | 20° |
| 2026-04-26 21:00 | -49.32488 | -67.81636 | 7619 ft | 222 kts | 19° |
| 2026-04-26 21:00 | -49.31019 | -67.80933 | 7633 ft | 221 kts | 2° |
| 2026-04-26 21:01 | -49.29493 | -67.80751 | 7618 ft | 219 kts | 356° |
| 2026-04-26 21:01 | -49.27975 | -67.80701 | 7627 ft | 218 kts | 354° |
| 2026-04-26 21:01 | -49.26461 | -67.80638 | 7612 ft | 218 kts | 1° |
| 2026-04-26 21:01 | -49.24948 | -67.80417 | 7628 ft | 218 kts | 360° |
| 2026-04-26 21:02 | -49.23450 | -67.80229 | 7606 ft | 219 kts | 0° |
| 2026-04-26 21:02 | -49.21913 | -67.80041 | 7623 ft | 218 kts | 360° |
| 2026-04-26 21:02 | -49.20425 | -67.79869 | 7621 ft | 217 kts | 360° |
| 2026-04-26 21:02 | -49.18918 | -67.79685 | 7626 ft | 218 kts | 0° |
| 2026-04-26 21:03 | -49.17407 | -67.79470 | 7624 ft | 218 kts | 0° |
| 2026-04-26 21:03 | -49.15900 | -67.79262 | 7600 ft | 219 kts | 0° |
| 2026-04-26 21:03 | -49.14366 | -67.79040 | 7600 ft | 221 kts | 0° |
| 2026-04-26 21:03 | -49.12845 | -67.78825 | 7625 ft | 219 kts | 360° |
| 2026-04-26 21:04 | -49.11328 | -67.78637 | 7627 ft | 219 kts | 359° |
| 2026-04-26 21:04 | -49.09810 | -67.78453 | 7623 ft | 219 kts | 359° |
| 2026-04-26 21:04 | -49.08286 | -67.78265 | 7618 ft | 219 kts | 360° |
| 2026-04-26 21:04 | -49.06771 | -67.78079 | 7614 ft | 219 kts | 0° |
| 2026-04-26 21:05 | -49.05245 | -67.77882 | 7615 ft | 220 kts | 0° |
| 2026-04-26 21:05 | -49.03726 | -67.77667 | 7628 ft | 219 kts | 0° |
| 2026-04-26 21:05 | -49.02207 | -67.77458 | 7630 ft | 220 kts | 0° |
| 2026-04-26 21:05 | -49.00688 | -67.77242 | 7628 ft | 220 kts | 0° |
| 2026-04-26 21:06 | -48.99654 | -67.77090 | 7625 ft | 220 kts | 0° |
| 2026-04-26 21:06 | -48.98131 | -67.76880 | 7630 ft | 219 kts | 360° |
| 2026-04-26 21:06 | -48.96611 | -67.76689 | 7634 ft | 219 kts | 360° |
| 2026-04-26 21:06 | -48.95095 | -67.76496 | 7635 ft | 218 kts | 360° |
| 2026-04-26 21:07 | -48.93604 | -67.76323 | 7631 ft | 218 kts | 360° |
| 2026-04-26 21:07 | -48.92093 | -67.76141 | 7631 ft | 218 kts | 0° |
| 2026-04-26 21:07 | -48.90571 | -67.75941 | 7618 ft | 219 kts | 0° |
| 2026-04-26 21:07 | -48.89055 | -67.75742 | 7616 ft | 219 kts | 0° |
| 2026-04-26 21:08 | -48.87535 | -67.75528 | 7626 ft | 219 kts | 0° |
| 2026-04-26 21:08 | -48.86019 | -67.75321 | 7626 ft | 219 kts | 0° |
| 2026-04-26 21:08 | -48.84508 | -67.75110 | 7626 ft | 219 kts | 0° |
| 2026-04-26 21:08 | -48.82985 | -67.74908 | 7622 ft | 219 kts | 0° |
| 2026-04-26 21:09 | -48.81467 | -67.74705 | 7616 ft | 219 kts | 0° |
| 2026-04-26 21:09 | -48.79950 | -67.74515 | 7622 ft | 218 kts | 0° |
| 2026-04-26 21:09 | -48.78439 | -67.74324 | 7623 ft | 219 kts | 0° |
| 2026-04-26 21:09 | -48.76916 | -67.74117 | 7623 ft | 219 kts | 0° |
| 2026-04-26 21:10 | -48.75401 | -67.73917 | 7628 ft | 219 kts | 0° |
| 2026-04-26 21:10 | -48.73877 | -67.73704 | 7629 ft | 220 kts | 0° |
| 2026-04-26 21:10 | -48.72351 | -67.73492 | 7620 ft | 220 kts | 0° |
| 2026-04-26 21:10 | -48.70829 | -67.73294 | 7627 ft | 219 kts | 0° |
| 2026-04-26 21:11 | -48.69310 | -67.73099 | 7617 ft | 220 kts | 0° |
| 2026-04-26 21:11 | -48.67780 | -67.72909 | 7599 ft | 220 kts | 360° |
| 2026-04-26 21:11 | -48.66268 | -67.72727 | 7618 ft | 218 kts | 0° |
| 2026-04-26 21:11 | -48.64748 | -67.72547 | 7630 ft | 218 kts | 360° |
| 2026-04-26 21:12 | -48.63233 | -67.72360 | 7614 ft | 219 kts | 0° |
| 2026-04-26 21:12 | -48.61713 | -67.72171 | 7632 ft | 218 kts | 0° |
| 2026-04-26 21:12 | -48.60200 | -67.71974 | 7626 ft | 219 kts | 0° |
| 2026-04-26 21:12 | -48.58683 | -67.71768 | 7626 ft | 218 kts | 0° |
| 2026-04-26 21:13 | -48.57194 | -67.71574 | 7629 ft | 217 kts | 0° |
| 2026-04-26 21:13 | -48.55684 | -67.71374 | 7634 ft | 218 kts | 0° |
| 2026-04-26 21:13 | -48.54178 | -67.71152 | 7644 ft | 217 kts | 1° |
| 2026-04-26 21:13 | -48.52672 | -67.70935 | 7630 ft | 219 kts | 0° |
| 2026-04-26 21:14 | -48.51154 | -67.70758 | 7637 ft | 218 kts | 359° |
| 2026-04-26 21:14 | -48.49636 | -67.70624 | 7630 ft | 218 kts | 358° |
| 2026-04-26 21:14 | -48.48120 | -67.70537 | 7637 ft | 218 kts | 357° |
| 2026-04-26 21:14 | -48.46603 | -67.70494 | 7642 ft | 218 kts | 356° |
| 2026-04-26 21:15 | -48.45091 | -67.70492 | 7639 ft | 217 kts | 355° |
| 2026-04-26 21:15 | -48.43580 | -67.70524 | 7639 ft | 217 kts | 354° |
| 2026-04-26 21:15 | -48.42073 | -67.70587 | 7645 ft | 217 kts | 353° |
| 2026-04-26 21:15 | -48.40583 | -67.70668 | 7636 ft | 217 kts | 353° |
| 2026-04-26 21:16 | -48.39076 | -67.70766 | 7630 ft | 217 kts | 352° |
| 2026-04-26 21:16 | -48.37575 | -67.70878 | 7641 ft | 216 kts | 352° |
| 2026-04-26 21:16 | -48.36070 | -67.70995 | 7638 ft | 216 kts | 352° |
| 2026-04-26 21:16 | -48.34568 | -67.71110 | 7644 ft | 216 kts | 352° |
| 2026-04-26 21:17 | -48.33064 | -67.71215 | 7641 ft | 217 kts | 352° |
| 2026-04-26 21:17 | -48.31557 | -67.71301 | 7640 ft | 217 kts | 353° |
| 2026-04-26 21:17 | -48.30052 | -67.71362 | 7641 ft | 217 kts | 354° |
| 2026-04-26 21:17 | -48.28539 | -67.71391 | 7632 ft | 217 kts | 355° |
| 2026-04-26 21:18 | -48.27030 | -67.71390 | 7618 ft | 218 kts | 355° |
| 2026-04-26 21:18 | -48.25509 | -67.71351 | 7624 ft | 218 kts | 356° |
| 2026-04-26 21:18 | -48.23993 | -67.71274 | 7632 ft | 218 kts | 358° |
| 2026-04-26 21:18 | -48.22483 | -67.71151 | 7653 ft | 217 kts | 359° |
| 2026-04-26 21:19 | -48.20974 | -67.70975 | 7642 ft | 217 kts | 0° |
| 2026-04-26 21:19 | -48.19474 | -67.70738 | 7652 ft | 217 kts | 1° |
| 2026-04-26 21:19 | -48.17971 | -67.70458 | 7653 ft | 218 kts | 2° |
| 2026-04-26 21:19 | -48.16468 | -67.70135 | 7650 ft | 218 kts | 4° |
| 2026-04-26 21:20 | -48.14966 | -67.69775 | 7655 ft | 219 kts | 4° |
| 2026-04-26 21:20 | -48.13462 | -67.69389 | 7650 ft | 220 kts | 5° |
| 2026-04-26 21:20 | -48.11951 | -67.68989 | 7652 ft | 220 kts | 6° |
| 2026-04-26 21:20 | -48.10447 | -67.68563 | 7655 ft | 220 kts | 6° |
| 2026-04-26 21:21 | -48.08941 | -67.68115 | 7649 ft | 221 kts | 7° |
| 2026-04-26 21:21 | -48.07433 | -67.67660 | 7649 ft | 221 kts | 7° |
| 2026-04-26 21:21 | -48.05923 | -67.67203 | 7656 ft | 221 kts | 7° |
| 2026-04-26 21:21 | -48.04409 | -67.66749 | 7656 ft | 221 kts | 7° |
| 2026-04-26 21:22 | -48.02898 | -67.66310 | 7653 ft | 221 kts | 6° |
| 2026-04-26 21:22 | -48.01385 | -67.65883 | 7651 ft | 221 kts | 6° |
| 2026-04-26 21:22 | -47.99871 | -67.65477 | 7654 ft | 221 kts | 5° |
| 2026-04-26 21:23 | -47.96839 | -67.64751 | 7657 ft | 220 kts | 4° |
| 2026-04-26 21:23 | -47.95348 | -67.64437 | 7656 ft | 220 kts | 3° |
| 2026-04-26 21:23 | -47.93830 | -67.64149 | 7654 ft | 220 kts | 2° |
| 2026-04-26 21:23 | -47.92308 | -67.63894 | 7648 ft | 220 kts | 1° |
| 2026-04-26 21:24 | -47.90788 | -67.63676 | 7659 ft | 219 kts | 0° |
| 2026-04-26 21:24 | -47.89267 | -67.63493 | 7664 ft | 219 kts | 359° |
| 2026-04-26 21:24 | -47.87750 | -67.63344 | 7673 ft | 219 kts | 358° |
| 2026-04-26 21:24 | -47.86228 | -67.63229 | 7669 ft | 219 kts | 357° |
| 2026-04-26 21:25 | -47.84711 | -67.63142 | 7673 ft | 218 kts | 356° |
| 2026-04-26 21:25 | -47.83194 | -67.63083 | 7667 ft | 218 kts | 356° |
| 2026-04-26 21:25 | -47.81674 | -67.63046 | 7669 ft | 218 kts | 355° |
| 2026-04-26 21:25 | -47.80159 | -67.63022 | 7668 ft | 218 kts | 355° |
| 2026-04-26 21:26 | -47.78644 | -67.63006 | 7663 ft | 217 kts | 355° |
| 2026-04-26 21:26 | -47.77132 | -67.62993 | 7667 ft | 217 kts | 355° |
| 2026-04-26 21:26 | -47.75621 | -67.62979 | 7668 ft | 217 kts | 355° |
| 2026-04-26 21:26 | -47.74110 | -67.62958 | 7661 ft | 217 kts | 355° |
| 2026-04-26 21:27 | -47.72594 | -67.62935 | 7668 ft | 218 kts | 356° |
| 2026-04-26 21:27 | -47.71076 | -67.62891 | 7661 ft | 218 kts | 356° |
| 2026-04-26 21:27 | -47.69576 | -67.62821 | 7669 ft | 219 kts | 357° |
| 2026-04-26 21:27 | -47.68057 | -67.62724 | 7657 ft | 219 kts | 358° |
| 2026-04-26 21:28 | -47.66533 | -67.62599 | 7654 ft | 218 kts | 358° |
| 2026-04-26 21:28 | -47.65027 | -67.62453 | 7686 ft | 217 kts | 359° |
| 2026-04-26 21:28 | -47.63526 | -67.62271 | 7677 ft | 218 kts | 0° |
| 2026-04-26 21:28 | -47.62012 | -67.62060 | 7673 ft | 218 kts | 1° |
| 2026-04-26 21:29 | -47.60504 | -67.61818 | 7682 ft | 218 kts | 2° |
| 2026-04-26 21:29 | -47.58999 | -67.61553 | 7672 ft | 218 kts | 2° |
| 2026-04-26 21:29 | -47.57494 | -67.61266 | 7679 ft | 218 kts | 3° |
| 2026-04-26 21:29 | -47.55991 | -67.60953 | 7679 ft | 219 kts | 4° |
| 2026-04-26 21:30 | -47.54482 | -67.60620 | 7675 ft | 220 kts | 4° |
| 2026-04-26 21:30 | -47.52969 | -67.60265 | 7678 ft | 220 kts | 4° |
| 2026-04-26 21:30 | -47.51461 | -67.59903 | 7673 ft | 220 kts | 5° |
| 2026-04-26 21:30 | -47.49946 | -67.59541 | 7677 ft | 221 kts | 5° |
| 2026-04-26 21:31 | -47.48426 | -67.59178 | 7674 ft | 222 kts | 4° |
| 2026-04-26 21:31 | -47.46906 | -67.58831 | 7688 ft | 220 kts | 4° |
| 2026-04-26 21:31 | -47.45392 | -67.58502 | 7689 ft | 220 kts | 4° |
| 2026-04-26 21:31 | -47.43873 | -67.58183 | 7690 ft | 220 kts | 3° |
| 2026-04-26 21:32 | -47.42356 | -67.57889 | 7682 ft | 220 kts | 2° |
| 2026-04-26 21:32 | -47.40837 | -67.57608 | 7691 ft | 221 kts | 2° |
| 2026-04-26 21:32 | -47.39308 | -67.57358 | 7692 ft | 220 kts | 1° |
| 2026-04-26 21:32 | -47.37786 | -67.57146 | 7686 ft | 220 kts | 0° |
| 2026-04-26 21:33 | -47.36258 | -67.56956 | 7687 ft | 220 kts | 360° |
| 2026-04-26 21:33 | -47.34734 | -67.56805 | 7692 ft | 219 kts | 359° |
| 2026-04-26 21:33 | -47.33231 | -67.56670 | 7687 ft | 219 kts | 358° |
| 2026-04-26 21:33 | -47.31706 | -67.56545 | 7687 ft | 220 kts | 358° |
| 2026-04-26 21:34 | -47.30173 | -67.56441 | 7678 ft | 220 kts | 358° |
| 2026-04-26 21:34 | -47.28645 | -67.56340 | 7684 ft | 219 kts | 358° |
| 2026-04-26 21:34 | -47.27123 | -67.56245 | 7681 ft | 219 kts | 358° |
| 2026-04-26 21:34 | -47.25602 | -67.56154 | 7696 ft | 218 kts | 357° |
| 2026-04-26 21:35 | -47.24084 | -67.56068 | 7696 ft | 219 kts | 358° |
| 2026-04-26 21:35 | -47.22562 | -67.55972 | 7695 ft | 219 kts | 358° |
| 2026-04-26 21:35 | -47.21047 | -67.55873 | 7699 ft | 218 kts | 358° |
| 2026-04-26 21:35 | -47.19532 | -67.55776 | 7698 ft | 217 kts | 359° |
| 2026-04-26 21:36 | -47.18024 | -67.55660 | 7695 ft | 217 kts | 359° |
| 2026-04-26 21:36 | -47.17023 | -67.55572 | 7691 ft | 217 kts | 359° |
| 2026-04-26 21:36 | -47.15022 | -67.55360 | 7689 ft | 217 kts | 0° |
| 2026-04-26 21:36 | -47.13517 | -67.55167 | 7698 ft | 217 kts | 1° |
| 2026-04-26 21:37 | -47.12015 | -67.54950 | 7685 ft | 218 kts | 2° |
| 2026-04-26 21:37 | -47.10506 | -67.54711 | 7693 ft | 218 kts | 2° |
| 2026-04-26 21:37 | -47.08998 | -67.54456 | 7695 ft | 218 kts | 2° |
| 2026-04-26 21:37 | -47.07489 | -67.54185 | 7691 ft | 219 kts | 3° |
| 2026-04-26 21:38 | -47.05982 | -67.53903 | 7698 ft | 218 kts | 3° |
| 2026-04-26 21:38 | -47.04475 | -67.53615 | 7704 ft | 218 kts | 3° |
| 2026-04-26 21:38 | -47.02972 | -67.53326 | 7707 ft | 219 kts | 3° |
| 2026-04-26 21:38 | -47.01457 | -67.53037 | 7706 ft | 219 kts | 3° |
| 2026-04-26 21:39 | -46.99945 | -67.52754 | 7707 ft | 219 kts | 3° |
| 2026-04-26 21:39 | -46.98436 | -67.52484 | 7709 ft | 219 kts | 3° |
| 2026-04-26 21:39 | -46.96921 | -67.52226 | 7710 ft | 219 kts | 2° |
| 2026-04-26 21:39 | -46.95401 | -67.51984 | 7694 ft | 219 kts | 2° |
| 2026-04-26 21:40 | -46.93885 | -67.51758 | 7712 ft | 219 kts | 1° |
| 2026-04-26 21:40 | -46.92372 | -67.51551 | 7708 ft | 219 kts | 1° |
| 2026-04-26 21:40 | -46.90850 | -67.51359 | 7711 ft | 219 kts | 1° |
| 2026-04-26 21:40 | -46.89333 | -67.51184 | 7703 ft | 219 kts | 0° |
| 2026-04-26 21:41 | -46.87813 | -67.51023 | 7704 ft | 219 kts | 360° |
| 2026-04-26 21:41 | -46.86298 | -67.50878 | 7718 ft | 218 kts | 359° |
| 2026-04-26 21:41 | -46.84785 | -67.50741 | 7716 ft | 218 kts | 359° |
| 2026-04-26 21:41 | -46.83271 | -67.50608 | 7714 ft | 218 kts | 359° |
| 2026-04-26 21:42 | -46.81776 | -67.50480 | 7706 ft | 218 kts | 359° |
| 2026-04-26 21:42 | -46.80263 | -67.50343 | 7719 ft | 218 kts | 359° |
| 2026-04-26 21:42 | -46.78747 | -67.50199 | 7717 ft | 218 kts | 360° |
| 2026-04-26 21:42 | -46.77230 | -67.50049 | 7720 ft | 219 kts | 0° |
| 2026-04-26 21:43 | -46.75712 | -67.49885 | 7722 ft | 219 kts | 0° |
| 2026-04-26 21:43 | -46.74195 | -67.49711 | 7718 ft | 219 kts | 1° |
| 2026-04-26 21:43 | -46.72673 | -67.49528 | 7700 ft | 219 kts | 1° |
| 2026-04-26 21:43 | -46.71157 | -67.49330 | 7713 ft | 218 kts | 1° |
| 2026-04-26 21:44 | -46.69646 | -67.49118 | 7720 ft | 218 kts | 2° |
| 2026-04-26 21:44 | -46.68132 | -67.48895 | 7716 ft | 219 kts | 2° |
| 2026-04-26 21:44 | -46.66620 | -67.48663 | 7720 ft | 219 kts | 2° |
| 2026-04-26 21:44 | -46.65107 | -67.48422 | 7718 ft | 218 kts | 2° |
| 2026-04-26 21:45 | -46.63598 | -67.48175 | 7725 ft | 218 kts | 2° |
| 2026-04-26 21:45 | -46.62085 | -67.47929 | 7715 ft | 219 kts | 2° |
| 2026-04-26 21:45 | -46.60568 | -67.47685 | 7696 ft | 220 kts | 2° |
| 2026-04-26 21:45 | -46.59046 | -67.47446 | 7690 ft | 219 kts | 2° |
| 2026-04-26 21:46 | -46.57551 | -67.47223 | 7721 ft | 218 kts | 2° |
| 2026-04-26 21:46 | -46.56018 | -67.47007 | 7659 ft | 221 kts | 1° |
| 2026-04-26 21:46 | -46.54490 | -67.46804 | 7680 ft | 219 kts | 1° |
| 2026-04-26 21:46 | -46.52971 | -67.46614 | 7692 ft | 219 kts | 1° |
| 2026-04-26 21:47 | -46.51463 | -67.46431 | 7724 ft | 217 kts | 1° |
| 2026-04-26 21:47 | -46.49954 | -67.46258 | 7723 ft | 217 kts | 0° |
| 2026-04-26 21:47 | -46.48444 | -67.46093 | 7717 ft | 218 kts | 0° |
| 2026-04-26 21:47 | -46.46934 | -67.45932 | 7730 ft | 218 kts | 0° |
| 2026-04-26 21:48 | -46.45443 | -67.45775 | 7730 ft | 219 kts | 0° |
| 2026-04-26 21:48 | -46.43920 | -67.45613 | 7724 ft | 219 kts | 0° |
| 2026-04-26 21:48 | -46.42403 | -67.45448 | 7725 ft | 219 kts | 0° |
| 2026-04-26 21:48 | -46.40882 | -67.45274 | 7720 ft | 219 kts | 0° |
| 2026-04-26 21:49 | -46.39361 | -67.45092 | 7716 ft | 219 kts | 1° |
| 2026-04-26 21:49 | -46.37839 | -67.44903 | 7717 ft | 219 kts | 1° |
| 2026-04-26 21:49 | -46.36320 | -67.44708 | 7728 ft | 219 kts | 1° |
| 2026-04-26 21:49 | -46.34800 | -67.44503 | 7726 ft | 219 kts | 1° |
| 2026-04-26 21:50 | -46.33298 | -67.44294 | 7730 ft | 219 kts | 1° |
| 2026-04-26 21:50 | -46.32272 | -67.44148 | 7731 ft | 219 kts | 2° |
| 2026-04-26 21:50 | -46.30259 | -67.43856 | 7726 ft | 219 kts | 2° |
| 2026-04-26 21:50 | -46.28742 | -67.43645 | 7732 ft | 219 kts | 1° |
| 2026-04-26 21:51 | -46.27223 | -67.43442 | 7736 ft | 219 kts | 2° |
| 2026-04-26 21:51 | -46.25704 | -67.43244 | 7735 ft | 219 kts | 1° |
| 2026-04-26 21:51 | -46.24182 | -67.43051 | 7733 ft | 220 kts | 1° |
| 2026-04-26 21:51 | -46.22668 | -67.42862 | 7724 ft | 220 kts | 1° |
| 2026-04-26 21:52 | -46.21127 | -67.42673 | 7727 ft | 220 kts | 1° |
| 2026-04-26 21:52 | -46.19604 | -67.42485 | 7733 ft | 219 kts | 1° |
| 2026-04-26 21:52 | -46.18080 | -67.42298 | 7723 ft | 219 kts | 1° |
| 2026-04-26 21:52 | -46.16578 | -67.42120 | 7726 ft | 215 kts | 0° |
| 2026-04-26 21:53 | -46.15075 | -67.42058 | 7606 ft | 217 kts | 358° |
| 2026-04-26 21:53 | -46.13560 | -67.42005 | 7484 ft | 217 kts | 356° |
| 2026-04-26 21:53 | -46.12065 | -67.41955 | 7428 ft | 215 kts | 2° |
| 2026-04-26 21:53 | -46.10591 | -67.41609 | 7207 ft | 221 kts | 7° |
| 2026-04-26 21:54 | -46.09071 | -67.41190 | 6957 ft | 223 kts | 7° |
| 2026-04-26 21:54 | -46.07542 | -67.40780 | 6714 ft | 223 kts | 6° |
| 2026-04-26 21:54 | -46.06008 | -67.40460 | 6436 ft | 222 kts | 3° |
| 2026-04-26 21:54 | -46.04476 | -67.40240 | 6172 ft | 220 kts | 0° |
| 2026-04-26 21:55 | -46.02948 | -67.40107 | 5903 ft | 220 kts | 359° |
| 2026-04-26 21:55 | -46.01426 | -67.40011 | 5650 ft | 218 kts | 358° |
| 2026-04-26 21:55 | -45.99911 | -67.39936 | 5392 ft | 217 kts | 358° |
| 2026-04-26 21:55 | -45.98419 | -67.39855 | 5138 ft | 213 kts | 358° |
| 2026-04-26 21:56 | -45.96939 | -67.39730 | 4865 ft | 212 kts | 360° |
| 2026-04-26 21:56 | -45.95962 | -67.39619 | 4679 ft | 211 kts | 1° |
| 2026-04-26 21:56 | -45.94027 | -67.39348 | 4327 ft | 210 kts | 2° |
| 2026-04-26 21:56 | -45.92622 | -67.39135 | 4065 ft | 210 kts | 2° |
| 2026-04-26 21:57 | -45.91166 | -67.38907 | 3799 ft | 210 kts | 2° |
| 2026-04-26 21:57 | -45.89707 | -67.38700 | 3541 ft | 210 kts | 2° |
| 2026-04-26 21:57 | -45.88251 | -67.38504 | 3294 ft | 210 kts | 1° |
| 2026-04-26 21:57 | -45.87292 | -67.38379 | 3136 ft | 208 kts | 1° |
| 2026-04-26 21:58 | -45.85852 | -67.38207 | 2892 ft | 207 kts | 1° |
| 2026-04-26 21:58 | -45.84407 | -67.38048 | 2606 ft | 209 kts | 0° |
| 2026-04-26 21:58 | -45.82987 | -67.37969 | 2521 ft | 199 kts | 356° |
| 2026-04-26 21:58 | -45.81629 | -67.38027 | 2385 ft | 194 kts | 353° |
| 2026-04-26 21:59 | -45.80316 | -67.38185 | 2386 ft | 185 kts | 350° |
| 2026-04-26 21:59 | -45.79058 | -67.38428 | 2351 ft | 181 kts | 348° |
| 2026-04-26 21:59 | -45.77827 | -67.38750 | 2284 ft | 180 kts | 345° |
| 2026-04-26 21:59 | -45.76652 | -67.39323 | 2262 ft | 175 kts | 323° |
| 2026-04-26 22:00 | -45.76044 | -67.40721 | 2278 ft | 170 kts | 278° |
| 2026-04-26 22:00 | -45.76018 | -67.42375 | 2338 ft | 162 kts | 270° |
| 2026-04-26 22:00 | -45.76131 | -67.43875 | 2409 ft | 139 kts | 263° |
| 2026-04-26 22:00 | -45.76312 | -67.45088 | 2130 ft | 110 kts | 262° |
| 2026-04-26 22:01 | -45.76477 | -67.46078 | 1917 ft | 98 kts | 260° |
| 2026-04-26 22:01 | -45.76685 | -67.46993 | 1681 ft | 96 kts | 255° |
| 2026-04-26 22:01 | -45.76940 | -67.47914 | 1426 ft | 100 kts | 252° |
| 2026-04-26 22:01 | -45.77200 | -67.48785 | 1224 ft | 95 kts | 248° |
| 2026-04-26 22:02 | -45.77669 | -67.49453 | 1055 ft | 98 kts | 206° |
| 2026-04-26 22:02 | -45.78338 | -67.49605 | 924 ft | 98 kts | 166° |
| 2026-04-26 22:02 | -45.78804 | -67.49006 | 655 ft | 92 kts | 95° |
| 2026-04-26 22:02 | -45.78727 | -67.48128 | 283 ft | 86 kts | 80° |
| 2026-04-26 22:03 | -45.78624 | -67.47339 | 197 ft | 75 kts | 79° |
| 2026-04-26 22:03 | -45.78559 | -67.46830 | 190 ft | 12 kts | 83° |
| 2026-04-26 22:03 | -45.78581 | -67.46798 | 196 ft | 1 kts | 208° |
| 2026-04-26 22:03 | -45.78624 | -67.46811 | 190 ft | 5 kts | 182° |
| 2026-04-26 22:04 | -45.78652 | -67.46811 | 190 ft | 0 kts | 178° |
| 2026-04-26 22:05 | -45.78653 | -67.46811 | 190 ft | 0 kts | 178° |
| 2026-04-26 22:05 | -45.78690 | -67.46808 | 190 ft | 8 kts | 176° |
| 2026-04-26 22:05 | -45.78751 | -67.46804 | 191 ft | 9 kts | 178° |
| 2026-04-26 22:06 | -45.78793 | -67.46802 | 191 ft | 4 kts | 178° |
| 2026-04-26 22:06 | -45.78828 | -67.46801 | 198 ft | 6 kts | 180° |
| 2026-04-26 22:06 | -45.78893 | -67.46805 | 191 ft | 11 kts | 206° |
| 2026-04-26 22:06 | -45.78912 | -67.46911 | 191 ft | 12 kts | 266° |
| 2026-04-26 22:07 | -45.78914 | -67.46983 | 191 ft | 6 kts | 268° |
| 2026-04-26 22:07 | -45.78932 | -67.47050 | 198 ft | 9 kts | 232° |
| 2026-04-26 22:07 | -45.78960 | -67.47080 | 191 ft | 0 kts | 192° |